createdAt,value
2024-03-01T00:00:09.173Z,26.80
2024-03-01T00:01:09.372Z,26.30
2024-03-01T00:02:09.525Z,25.80
2024-03-01T00:03:09.697Z,24.00
2024-03-01T00:04:09.906Z,27.80
2024-03-01T00:05:10.058Z,26.60
2024-03-01T00:06:10.273Z,27.90
2024-03-01T00:07:10.468Z,26.10
2024-03-01T00:08:10.606Z,27.30
2024-03-01T00:09:10.797Z,26.00
2024-03-01T00:10:11.056Z,25.60
2024-03-01T00:11:11.292Z,27.70
2024-03-01T00:12:11.364Z,28.00
2024-03-01T00:13:11.530Z,26.40
2024-03-01T00:14:11.719Z,26.80
2024-03-01T00:15:11.873Z,26.10
2024-03-01T00:16:12.121Z,26.40
2024-03-01T00:17:12.231Z,27.30
2024-03-01T00:18:12.425Z,27.90
2024-03-01T00:19:12.639Z,26.10
2024-03-01T00:20:12.767Z,27.50
2024-03-01T00:21:12.970Z,27.30
2024-03-01T00:22:13.164Z,26.80
2024-03-01T00:23:13.329Z,26.60
2024-03-01T00:24:13.513Z,29.30
2024-03-01T00:25:13.780Z,26.80
2024-03-01T00:26:13.882Z,27.30
2024-03-01T00:27:14.062Z,25.60
2024-03-01T00:28:14.255Z,26.40
2024-03-01T00:29:14.443Z,28.10
2024-03-01T00:30:14.658Z,27.10
2024-03-01T00:31:14.826Z,27.40
2024-03-01T00:32:14.972Z,25.40
2024-03-01T00:33:15.274Z,26.80
2024-03-01T00:34:15.353Z,27.30
2024-03-01T00:35:15.526Z,25.90
2024-03-01T00:36:15.722Z,26.00
2024-03-01T00:37:15.913Z,28.10
2024-03-01T00:38:16.067Z,29.00
2024-03-01T00:39:16.237Z,26.60
2024-03-01T00:40:16.526Z,25.30
2024-03-01T00:41:16.601Z,27.10
2024-03-01T00:42:16.786Z,26.00
2024-03-01T00:43:16.990Z,28.40
2024-03-01T00:44:17.156Z,26.60
2024-03-01T00:45:17.380Z,27.90
2024-03-01T00:46:17.591Z,24.90
2024-03-01T00:47:18.704Z,27.00
2024-03-01T00:48:17.886Z,27.30
2024-03-01T00:49:18.149Z,26.00
2024-03-01T00:50:18.248Z,26.80
2024-03-01T00:51:18.472Z,26.30
2024-03-01T00:52:18.657Z,27.70
2024-03-01T00:53:18.790Z,25.60
2024-03-01T00:54:18.968Z,25.70
2024-03-01T00:55:19.237Z,27.60
2024-03-01T00:56:19.338Z,27.80
2024-03-01T00:57:19.512Z,27.10
2024-03-01T00:58:19.708Z,26.80
2024-03-01T00:59:19.946Z,27.60
2024-03-01T01:00:20.048Z,27.80
2024-03-01T01:01:20.291Z,27.40
2024-03-01T01:02:20.446Z,29.50
2024-03-01T01:03:21.607Z,27.80
2024-03-01T01:04:20.811Z,26.70
2024-03-01T01:05:20.997Z,29.70
2024-03-01T01:06:21.178Z,28.70
2024-03-01T01:07:21.397Z,29.40
2024-03-01T01:08:22.507Z,27.90
2024-03-01T01:09:21.737Z,26.90
2024-03-01T01:10:21.995Z,28.80
2024-03-01T01:11:22.141Z,27.60
2024-03-01T01:12:22.330Z,27.60
2024-03-01T01:13:22.547Z,29.40
2024-03-01T01:14:22.693Z,29.90
2024-03-01T01:15:22.876Z,29.70
2024-03-01T01:16:23.081Z,28.70
2024-03-01T01:17:23.268Z,28.40
2024-03-01T01:18:23.439Z,30.80
2024-03-01T01:19:23.673Z,31.50
2024-03-01T01:20:23.772Z,30.40
2024-03-01T01:21:23.978Z,30.00
2024-03-01T01:22:24.414Z,31.40
2024-03-01T01:23:24.332Z,32.60
2024-03-01T01:24:24.501Z,32.40
2024-03-01T01:25:24.703Z,32.40
2024-03-01T01:26:24.902Z,31.50
2024-03-01T01:27:25.042Z,32.30
2024-03-01T01:28:25.359Z,32.40
2024-03-01T01:29:25.399Z,30.40
2024-03-01T01:30:25.601Z,31.10
2024-03-01T01:31:25.880Z,30.30
2024-03-01T01:32:25.960Z,31.80
2024-03-01T01:33:26.135Z,33.10
2024-03-01T01:34:26.345Z,32.80
2024-03-01T01:35:26.496Z,33.60
2024-03-01T01:36:26.685Z,32.00
2024-03-01T01:37:27.017Z,33.30
2024-03-01T01:38:27.027Z,31.80
2024-03-01T01:39:27.238Z,31.10
2024-03-01T01:40:27.438Z,31.40
2024-03-01T01:41:27.638Z,31.70
2024-03-01T01:42:27.804Z,33.20
2024-03-01T01:43:28.051Z,35.10
2024-03-01T01:44:28.149Z,33.40
2024-03-01T01:45:28.347Z,34.20
2024-03-01T01:46:28.613Z,33.80
2024-03-01T01:47:28.734Z,36.10
2024-03-01T01:48:28.897Z,32.80
2024-03-01T01:49:29.199Z,34.40
2024-03-01T01:50:29.267Z,34.20
2024-03-01T01:51:29.412Z,33.70
2024-03-01T01:52:29.698Z,34.70
2024-03-01T01:53:31.961Z,35.70
2024-03-01T01:54:30.957Z,33.90
2024-03-01T01:55:30.194Z,35.70
2024-03-01T01:56:30.330Z,36.20
2024-03-01T01:57:30.500Z,36.00
2024-03-01T01:58:30.809Z,34.90
2024-03-01T01:59:30.881Z,36.30
2024-03-01T02:00:31.082Z,36.00
2024-03-01T02:01:31.353Z,34.70
2024-03-01T02:02:31.460Z,34.60
2024-03-01T02:03:31.653Z,35.70
2024-03-01T02:04:31.927Z,38.00
2024-03-01T02:05:32.146Z,36.70
2024-03-01T02:06:32.218Z,36.10
2024-03-01T02:07:32.484Z,38.30
2024-03-01T02:08:32.595Z,38.20
2024-03-01T02:09:32.814Z,37.50
2024-03-01T02:10:33.053Z,35.80
2024-03-01T02:11:33.186Z,37.20
2024-03-01T02:12:33.325Z,40.20
2024-03-01T02:13:33.602Z,37.30
2024-03-01T02:14:33.690Z,38.70
2024-03-01T02:15:33.905Z,38.00
2024-03-01T02:16:34.110Z,39.80
2024-03-01T02:17:34.246Z,38.90
2024-03-01T02:18:41.421Z,37.50
2024-03-01T02:19:34.697Z,41.60
2024-03-01T02:20:34.763Z,37.10
2024-03-01T02:21:34.952Z,39.60
2024-03-01T02:22:35.186Z,40.50
2024-03-01T02:23:35.330Z,39.80
2024-03-01T02:24:35.518Z,38.90
2024-03-01T02:25:35.853Z,39.90
2024-03-01T02:26:35.897Z,38.80
2024-03-01T02:27:36.062Z,38.10
2024-03-01T02:28:36.317Z,41.60
2024-03-01T02:29:36.453Z,38.80
2024-03-01T02:30:36.638Z,41.90
2024-03-01T02:31:36.849Z,41.00
2024-03-01T02:32:37.033Z,39.70
2024-03-01T02:33:37.178Z,39.00
2024-03-01T02:34:37.436Z,40.80
2024-03-01T02:35:37.525Z,40.70
2024-03-01T02:36:37.714Z,41.50
2024-03-01T02:37:37.944Z,41.80
2024-03-01T02:38:38.058Z,42.30
2024-03-01T02:39:38.246Z,41.40
2024-03-01T02:40:38.467Z,40.40
2024-03-01T02:41:38.644Z,43.70
2024-03-01T02:42:38.799Z,43.60
2024-03-01T02:43:39.036Z,43.40
2024-03-01T02:44:39.146Z,44.90
2024-03-01T02:45:39.308Z,44.10
2024-03-01T02:46:39.521Z,42.60
2024-03-01T02:47:39.704Z,44.80
2024-03-01T02:48:39.855Z,42.00
2024-03-01T02:49:40.106Z,47.60
2024-03-01T02:50:40.231Z,42.90
2024-03-01T02:51:40.410Z,43.40
2024-03-01T02:52:40.584Z,43.90
2024-03-01T02:53:40.733Z,44.00
2024-03-01T02:54:40.906Z,42.80
2024-03-01T02:55:41.193Z,44.60
2024-03-01T02:56:41.319Z,41.50
2024-03-01T02:57:41.484Z,45.50
2024-03-01T02:58:41.763Z,44.00
2024-03-01T02:59:42.811Z,42.80
2024-03-01T03:00:42.100Z,44.50
2024-03-01T03:01:42.260Z,45.60
2024-03-01T03:02:42.390Z,42.00
2024-03-01T03:03:42.566Z,45.50
2024-03-01T03:04:42.764Z,45.40
2024-03-01T03:05:42.975Z,43.90
2024-03-01T03:06:44.727Z,44.80
2024-03-01T03:07:43.362Z,45.70
2024-03-01T03:08:43.488Z,43.90
2024-03-01T03:09:43.731Z,43.20
2024-03-01T03:10:43.933Z,44.70
2024-03-01T03:11:44.024Z,44.20
2024-03-01T03:12:44.194Z,47.00
2024-03-01T03:13:44.373Z,44.00
2024-03-01T03:14:44.553Z,43.60
2024-03-01T03:15:44.760Z,45.80
2024-03-01T03:16:44.932Z,45.30
2024-03-01T03:17:45.120Z,43.80
2024-03-01T03:18:45.288Z,47.30
2024-03-01T03:19:45.487Z,47.30
2024-03-01T03:20:45.685Z,45.80
2024-03-01T03:21:45.859Z,44.90
2024-03-01T03:22:46.338Z,46.90
2024-03-01T03:23:46.217Z,43.60
2024-03-01T03:24:46.406Z,46.50
2024-03-01T03:25:46.612Z,43.30
2024-03-01T03:26:46.755Z,44.00
2024-03-01T03:27:46.951Z,45.30
2024-03-01T03:28:47.115Z,50.60
2024-03-01T03:29:47.285Z,44.00
2024-03-01T03:30:47.476Z,44.70
2024-03-01T03:31:47.686Z,43.20
2024-03-01T03:32:47.934Z,45.50
2024-03-01T03:33:48.043Z,46.30
2024-03-01T03:34:48.224Z,42.70
2024-03-01T03:35:48.406Z,45.90
2024-03-01T03:36:48.625Z,45.90
2024-03-01T03:37:48.777Z,47.30
2024-03-01T03:38:48.985Z,45.60
2024-03-01T03:39:49.172Z,46.60
2024-03-01T03:40:49.320Z,44.10
2024-03-01T03:41:49.530Z,44.70
2024-03-01T03:42:49.693Z,44.00
2024-03-01T03:43:49.868Z,45.90
2024-03-01T03:44:50.063Z,46.20
2024-03-01T03:45:50.294Z,44.80
2024-03-01T03:46:50.436Z,44.70
2024-03-01T03:47:50.633Z,46.20
2024-03-01T03:48:50.836Z,47.20
2024-03-01T03:49:50.977Z,45.60
2024-03-01T03:50:51.195Z,42.90
2024-03-01T03:51:51.366Z,43.10
2024-03-01T03:52:51.522Z,43.90
2024-03-01T03:53:51.707Z,46.80
2024-03-01T03:54:51.913Z,46.80
2024-03-01T03:55:52.085Z,43.60
2024-03-01T03:56:52.252Z,44.00
2024-03-01T03:57:52.472Z,45.50
2024-03-01T03:58:52.604Z,45.60
2024-03-01T03:59:52.785Z,47.50
2024-03-01T04:00:53.087Z,45.30
2024-03-01T04:01:53.265Z,45.80
2024-03-01T04:02:53.382Z,43.90
2024-03-01T04:03:53.579Z,45.40
2024-03-01T04:04:53.704Z,44.80
2024-03-01T04:05:53.876Z,43.60
2024-03-01T04:06:54.108Z,42.90
2024-03-01T04:07:54.286Z,42.70
2024-03-01T04:08:54.434Z,47.40
2024-03-01T04:09:54.679Z,45.10
2024-03-01T04:10:54.815Z,48.60
2024-03-01T04:11:55.068Z,45.10
2024-03-01T04:12:55.251Z,48.20
2024-03-01T04:13:55.343Z,45.10
2024-03-01T04:14:55.522Z,43.70
2024-03-01T04:15:55.735Z,44.60
2024-03-01T04:16:55.910Z,45.80
2024-03-01T04:17:56.126Z,49.10
2024-03-01T04:18:56.303Z,45.80
2024-03-01T04:19:56.461Z,44.90
2024-03-01T04:20:56.626Z,45.70
2024-03-01T04:21:56.848Z,44.30
2024-03-01T04:22:56.975Z,48.40
2024-03-01T04:23:57.160Z,46.90
2024-03-01T04:24:57.370Z,47.20
2024-03-01T04:25:57.536Z,42.20
2024-03-01T04:26:57.762Z,46.60
2024-03-01T04:27:57.941Z,45.90
2024-03-01T04:28:58.109Z,44.20
2024-03-01T04:29:58.295Z,43.30
2024-03-01T04:30:58.567Z,45.90
2024-03-01T04:31:58.661Z,49.40
2024-03-01T04:32:58.944Z,46.70
2024-03-01T04:33:59.058Z,46.90
2024-03-01T04:34:59.219Z,42.70
2024-03-01T04:35:59.411Z,47.70
2024-03-01T04:36:59.938Z,46.50
2024-03-01T04:37:59.763Z,47.30
2024-03-01T04:38:59.971Z,47.70
2024-03-01T04:40:00.216Z,47.20
2024-03-01T04:41:00.342Z,46.60
2024-03-01T04:42:00.544Z,48.60
2024-03-01T04:43:00.806Z,48.20
2024-03-01T04:44:00.875Z,47.60
2024-03-01T04:45:01.093Z,47.60
2024-03-01T04:46:01.306Z,46.10
2024-03-01T04:47:01.462Z,44.60
2024-03-01T04:48:01.639Z,47.10
2024-03-01T04:49:01.870Z,50.10
2024-03-01T04:50:01.998Z,45.70
2024-03-01T04:51:02.186Z,48.70
2024-03-01T04:52:02.478Z,47.50
2024-03-01T04:53:02.555Z,47.00
2024-03-01T04:54:02.721Z,50.30
2024-03-01T04:55:02.957Z,47.50
2024-03-01T04:56:03.092Z,46.80
2024-03-01T04:57:03.298Z,53.10
2024-03-01T04:58:03.510Z,49.20
2024-03-01T04:59:03.644Z,49.00
2024-03-01T05:00:03.817Z,48.60
2024-03-01T05:01:04.226Z,50.60
2024-03-01T05:02:04.330Z,47.30
2024-03-01T05:03:04.396Z,45.70
2024-03-01T05:04:04.595Z,48.90
2024-03-01T05:05:04.758Z,50.30
2024-03-01T05:06:04.943Z,50.60
2024-03-01T05:07:05.185Z,48.30
2024-03-01T05:08:05.295Z,45.50
2024-03-01T05:09:05.487Z,49.70
2024-03-01T05:10:05.722Z,50.10
2024-03-01T05:11:05.973Z,46.50
2024-03-01T05:12:06.085Z,49.40
2024-03-01T05:13:06.224Z,51.30
2024-03-01T05:14:06.397Z,46.30
2024-03-01T05:15:06.562Z,49.80
2024-03-01T05:16:06.783Z,47.50
2024-03-01T05:17:06.932Z,48.90
2024-03-01T05:18:07.682Z,52.00
2024-03-01T05:19:07.331Z,50.90
2024-03-01T05:20:07.506Z,49.00
2024-03-01T05:21:07.644Z,50.50
2024-03-01T05:22:07.837Z,49.30
2024-03-01T05:23:08.018Z,50.50
2024-03-01T05:24:08.173Z,49.80
2024-03-01T05:25:08.356Z,50.80
2024-03-01T05:26:08.554Z,48.60
2024-03-01T05:27:08.710Z,50.80
2024-03-01T05:28:08.889Z,52.50
2024-03-01T05:29:09.069Z,52.30
2024-03-01T05:30:09.265Z,53.20
2024-03-01T05:31:18.995Z,50.40
2024-03-01T05:32:10.708Z,51.60
2024-03-01T05:33:09.893Z,51.00
2024-03-01T05:34:10.030Z,50.70
2024-03-01T05:35:10.169Z,51.70
2024-03-01T05:36:10.354Z,51.20
2024-03-01T05:37:10.606Z,51.10
2024-03-01T05:38:10.731Z,50.70
2024-03-01T05:39:10.914Z,52.50
2024-03-01T05:40:11.184Z,51.50
2024-03-01T05:41:11.284Z,50.30
2024-03-01T05:42:11.462Z,51.60
2024-03-01T05:43:11.699Z,52.20
2024-03-01T05:44:11.816Z,50.00
2024-03-01T05:45:12.023Z,55.80
2024-03-01T05:46:12.220Z,51.90
2024-03-01T05:47:12.347Z,50.80
2024-03-01T05:48:12.578Z,52.30
2024-03-01T05:49:12.742Z,52.30
2024-03-01T05:50:12.911Z,55.90
2024-03-01T05:51:13.287Z,53.40
2024-03-01T05:52:13.319Z,51.90
2024-03-01T05:53:13.465Z,54.50
2024-03-01T05:54:13.671Z,50.80
2024-03-01T05:55:14.147Z,49.30
2024-03-01T05:56:13.977Z,54.50
2024-03-01T05:57:14.169Z,53.20
2024-03-01T05:58:14.432Z,52.00
2024-03-01T05:59:14.524Z,52.60
2024-03-01T06:00:14.701Z,52.30
2024-03-01T06:01:14.997Z,54.10
2024-03-01T06:02:15.171Z,56.30
2024-03-01T06:03:15.258Z,53.90
2024-03-01T06:04:15.449Z,53.50
2024-03-01T06:05:15.652Z,54.10
2024-03-01T06:06:15.864Z,51.20
2024-03-01T06:07:16.050Z,53.00
2024-03-01T06:08:16.174Z,53.40
2024-03-01T06:09:16.348Z,51.40
2024-03-01T06:10:16.612Z,55.30
2024-03-01T06:11:16.732Z,54.00
2024-03-01T06:12:16.925Z,55.60
2024-03-01T06:13:17.165Z,57.30
2024-03-01T06:14:17.283Z,56.60
2024-03-01T06:15:17.520Z,55.90
2024-03-01T06:16:17.748Z,54.60
2024-03-01T06:17:17.855Z,58.20
2024-03-01T06:18:18.090Z,56.00
2024-03-01T06:19:18.239Z,57.50
2024-03-01T06:20:18.442Z,57.00
2024-03-01T06:21:18.604Z,50.90
2024-03-01T06:22:18.814Z,54.50
2024-03-01T06:23:19.024Z,57.20
2024-03-01T06:24:19.158Z,57.40
2024-03-01T06:25:19.334Z,56.90
2024-03-01T06:26:19.520Z,56.40
2024-03-01T06:27:19.712Z,54.30
2024-03-01T06:28:19.963Z,58.70
2024-03-01T06:29:20.099Z,54.90
2024-03-01T06:30:20.274Z,53.90
2024-03-01T06:31:20.567Z,52.20
2024-03-01T06:32:20.677Z,57.90
2024-03-01T06:33:20.890Z,53.30
2024-03-01T06:34:21.058Z,56.30
2024-03-01T06:35:22.155Z,55.20
2024-03-01T06:36:21.421Z,56.10
2024-03-01T06:37:21.675Z,52.20
2024-03-01T06:38:21.792Z,55.20
2024-03-01T06:39:21.961Z,55.80
2024-03-01T06:40:22.193Z,57.10
2024-03-01T06:41:22.333Z,58.20
2024-03-01T06:42:22.548Z,54.40
2024-03-01T06:43:22.730Z,53.70
2024-03-01T06:44:22.914Z,53.60
2024-03-01T06:45:23.113Z,55.20
2024-03-01T06:46:23.385Z,58.00
2024-03-01T06:47:23.598Z,53.00
2024-03-01T06:48:23.680Z,54.80
2024-03-01T06:49:23.846Z,55.30
2024-03-01T06:50:24.009Z,55.60
2024-03-01T06:51:24.225Z,53.70
2024-03-01T06:52:24.417Z,54.30
2024-03-01T06:53:25.097Z,52.90
2024-03-01T06:54:24.799Z,57.20
2024-03-01T06:55:25.044Z,53.10
2024-03-01T06:56:25.142Z,52.60
2024-03-01T06:57:25.348Z,55.10
2024-03-01T06:58:25.581Z,52.80
2024-03-01T06:59:25.708Z,54.90
2024-03-01T07:00:25.886Z,52.80
2024-03-01T07:01:26.127Z,51.20
2024-03-01T07:02:26.261Z,52.00
2024-03-01T07:03:26.463Z,51.80
2024-03-01T07:04:26.714Z,51.20
2024-03-01T07:05:26.827Z,54.00
2024-03-01T07:06:26.975Z,52.50
2024-03-01T07:07:27.233Z,53.00
2024-03-01T07:08:27.328Z,52.70
2024-03-01T07:09:27.522Z,53.50
2024-03-01T07:10:27.743Z,54.20
2024-03-01T07:11:28.016Z,54.90
2024-03-01T07:12:28.066Z,50.30
2024-03-01T07:13:28.309Z,49.90
2024-03-01T07:14:28.409Z,52.10
2024-03-01T07:15:28.610Z,52.50
2024-03-01T07:16:28.832Z,50.10
2024-03-01T07:17:29.059Z,49.70
2024-03-01T07:18:29.173Z,50.30
2024-03-01T07:19:29.376Z,52.10
2024-03-01T07:20:29.536Z,50.70
2024-03-01T07:21:29.714Z,51.90
2024-03-01T07:22:29.950Z,46.50
2024-03-01T07:23:30.108Z,54.90
2024-03-01T07:24:30.290Z,49.10
2024-03-01T07:25:30.536Z,48.40
2024-03-01T07:26:30.654Z,47.30
2024-03-01T07:27:30.834Z,48.20
2024-03-01T07:28:31.136Z,47.30
2024-03-01T07:29:31.230Z,43.70
2024-03-01T07:30:31.417Z,47.30
2024-03-01T07:31:31.691Z,47.30
2024-03-01T07:32:31.812Z,47.30
2024-03-01T07:33:32.236Z,46.50
2024-03-01T07:34:32.211Z,46.50
2024-03-01T07:35:32.383Z,47.40
2024-03-01T07:36:32.566Z,44.00
2024-03-01T07:37:32.926Z,47.30
2024-03-01T07:38:32.983Z,43.40
2024-03-01T07:39:33.171Z,45.00
2024-03-01T07:40:33.393Z,32.10
2024-03-01T07:41:33.517Z,30.90
2024-03-01T07:42:33.717Z,32.70
2024-03-01T07:43:34.030Z,34.30
2024-03-01T07:44:34.130Z,33.20
2024-03-01T07:45:34.306Z,34.20
2024-03-01T07:46:36.871Z,35.70
2024-03-01T07:47:34.687Z,36.00
2024-03-01T07:48:34.856Z,37.10
2024-03-01T07:49:35.092Z,42.80
2024-03-01T07:50:35.217Z,41.00
2024-03-01T07:51:35.383Z,40.50
2024-03-01T07:52:35.698Z,39.10
2024-03-01T07:53:35.752Z,38.30
2024-03-01T07:54:35.909Z,39.30
2024-03-01T07:55:38.293Z,41.70
2024-03-01T07:56:36.302Z,39.30
2024-03-01T07:57:36.535Z,39.80
2024-03-01T07:58:36.982Z,40.70
2024-03-01T07:59:36.971Z,37.10
2024-03-01T08:00:37.115Z,38.80
2024-03-01T08:01:37.390Z,38.50
2024-03-01T08:02:37.449Z,41.50
2024-03-01T08:03:37.626Z,38.70
2024-03-01T08:04:37.815Z,41.70
2024-03-01T08:05:37.989Z,40.00
2024-03-01T08:06:38.170Z,39.90
2024-03-01T08:07:38.439Z,39.90
2024-03-01T08:08:38.541Z,40.30
2024-03-01T08:09:38.729Z,41.10
2024-03-01T08:10:38.963Z,41.50
2024-03-01T08:11:39.152Z,33.10
2024-03-01T08:12:39.286Z,33.80
2024-03-01T08:13:39.593Z,29.80
2024-03-01T08:14:39.613Z,32.70
2024-03-01T08:15:39.919Z,32.60
2024-03-01T08:16:40.029Z,32.70
2024-03-01T08:17:40.304Z,32.00
2024-03-01T08:19:55.753Z,30.20
2024-03-01T08:20:55.962Z,31.00
2024-03-01T08:21:56.145Z,30.00
2024-03-01T08:22:56.321Z,28.60
2024-03-01T08:23:56.476Z,28.50
2024-03-01T08:24:56.706Z,30.70
2024-03-01T08:25:56.850Z,27.50
2024-03-01T08:26:57.027Z,28.60
2024-03-01T08:27:57.203Z,28.30
2024-03-01T08:28:57.364Z,29.60
2024-03-01T08:29:57.557Z,28.30
2024-03-01T08:30:57.840Z,27.60
2024-03-01T08:31:57.977Z,26.40
2024-03-01T08:32:58.174Z,28.20
2024-03-01T08:33:58.353Z,27.00
2024-03-01T08:34:58.512Z,27.90
2024-03-01T08:35:58.693Z,27.80
2024-03-01T08:36:58.935Z,26.70
2024-03-01T08:37:59.103Z,28.50
2024-03-01T08:38:59.254Z,29.00
2024-03-01T08:39:59.489Z,28.10
2024-03-01T08:40:59.636Z,27.20
2024-03-01T08:41:59.798Z,26.90
2024-03-01T08:43:00.052Z,25.60
2024-03-01T08:44:00.194Z,24.90
2024-03-01T08:45:00.766Z,26.10
2024-03-01T08:46:00.609Z,24.40
2024-03-01T08:47:00.762Z,23.70
2024-03-01T08:48:00.982Z,22.20
2024-03-01T08:49:01.219Z,25.50
2024-03-01T08:50:01.314Z,26.20
2024-03-01T08:51:01.514Z,23.60
2024-03-01T08:52:01.731Z,25.00
2024-03-01T08:53:01.907Z,23.60
2024-03-01T08:54:02.147Z,22.90
2024-03-01T08:55:02.273Z,19.80
2024-03-01T08:56:02.443Z,22.30
2024-03-01T08:57:02.636Z,22.30
2024-03-01T08:58:02.918Z,20.80
2024-03-01T08:59:03.015Z,21.90
2024-03-01T09:00:03.171Z,19.70
2024-03-01T09:01:03.404Z,21.50
2024-03-01T09:02:03.659Z,21.30
2024-03-01T09:03:03.770Z,21.40
2024-03-01T09:04:03.929Z,21.40
2024-03-01T09:05:04.102Z,21.90
2024-03-01T09:06:04.309Z,20.20
2024-03-01T09:07:04.512Z,21.70
2024-03-01T09:08:04.695Z,19.90
2024-03-01T09:09:04.832Z,22.20
2024-03-01T09:10:05.034Z,22.80
2024-03-01T09:11:05.226Z,24.00
2024-03-01T09:12:05.361Z,19.90
2024-03-01T09:13:05.634Z,18.30
2024-03-01T09:14:05.737Z,19.60
2024-03-01T09:15:05.912Z,18.00
2024-03-01T09:16:06.124Z,20.00
2024-03-01T09:17:06.269Z,21.40
2024-03-01T09:18:06.504Z,21.90
2024-03-01T09:19:06.666Z,24.70
2024-03-01T09:20:06.828Z,23.70
2024-03-01T09:21:06.999Z,26.20
2024-03-01T09:22:07.243Z,24.40
2024-03-01T09:23:07.383Z,22.50
2024-03-01T09:24:07.560Z,20.50
2024-03-01T09:25:07.784Z,23.90
2024-03-01T09:26:07.958Z,23.00
2024-03-01T09:27:08.145Z,23.10
2024-03-01T09:28:08.418Z,23.90
2024-03-01T09:29:08.505Z,26.10
2024-03-01T09:30:08.709Z,22.40
2024-03-01T09:31:08.908Z,27.70
2024-03-01T09:32:09.057Z,24.10
2024-03-01T09:33:09.289Z,28.40
2024-03-01T09:34:09.438Z,20.50
2024-03-01T09:35:09.625Z,24.10
2024-03-01T09:36:09.815Z,19.40
2024-03-01T09:37:10.094Z,22.20
2024-03-01T09:38:10.204Z,19.20
2024-03-01T09:39:10.352Z,19.80
2024-03-01T09:40:10.576Z,19.40
2024-03-01T09:41:11.733Z,19.70
2024-03-01T09:42:10.914Z,22.20
2024-03-01T09:43:11.170Z,18.80
2024-03-01T09:44:11.291Z,18.30
2024-03-01T09:45:11.483Z,19.60
2024-03-01T09:46:11.720Z,18.10
2024-03-01T09:47:11.873Z,18.30
2024-03-01T09:48:12.169Z,17.10
2024-03-01T09:49:12.349Z,18.10
2024-03-01T09:50:12.467Z,19.30
2024-03-01T09:51:12.625Z,18.20
2024-03-01T09:52:12.916Z,17.50
2024-03-01T09:53:12.999Z,16.40
2024-03-01T09:54:14.768Z,17.50
2024-03-01T09:55:13.480Z,17.90
2024-03-01T09:56:13.630Z,17.20
2024-03-01T09:57:13.781Z,17.10
2024-03-01T09:58:14.049Z,17.10
2024-03-01T09:59:14.152Z,17.00
2024-03-01T10:00:14.322Z,17.80
2024-03-01T10:01:14.625Z,16.80
2024-03-01T10:02:14.735Z,17.10
2024-03-01T10:03:14.869Z,16.10
2024-03-01T10:04:15.099Z,19.00
2024-03-01T10:05:15.240Z,17.30
2024-03-01T10:06:15.507Z,16.10
2024-03-01T10:07:15.671Z,16.60
2024-03-01T10:08:15.851Z,15.20
2024-03-01T10:09:16.013Z,15.00
2024-03-01T10:10:16.225Z,15.70
2024-03-01T10:11:16.457Z,21.20
2024-03-01T10:12:16.570Z,17.70
2024-03-01T10:13:16.786Z,16.30
2024-03-01T10:14:16.946Z,15.60
2024-03-01T10:15:17.176Z,15.90
2024-03-01T10:16:17.373Z,21.20
2024-03-01T10:17:17.516Z,17.60
2024-03-01T10:18:17.718Z,16.10
2024-03-01T10:19:17.962Z,16.20
2024-03-01T10:20:18.101Z,16.20
2024-03-01T10:21:18.297Z,15.70
2024-03-01T10:22:18.499Z,15.70
2024-03-01T10:23:18.674Z,15.00
2024-03-01T10:24:18.953Z,15.00
2024-03-01T10:25:19.141Z,14.80
2024-03-01T10:26:19.211Z,16.80
2024-03-01T10:27:19.408Z,16.60
2024-03-01T10:28:19.649Z,16.10
2024-03-01T10:29:19.788Z,15.60
2024-03-01T10:30:19.951Z,15.10
2024-03-01T10:31:20.212Z,17.10
2024-03-01T10:32:20.326Z,16.70
2024-03-01T10:33:20.556Z,19.40
2024-03-01T10:34:20.746Z,18.30
2024-03-01T10:35:20.894Z,19.70
2024-03-01T10:36:21.065Z,17.30
2024-03-01T10:37:21.291Z,17.40
2024-03-01T10:38:21.422Z,18.70
2024-03-01T10:39:21.639Z,18.80
2024-03-01T10:40:21.835Z,18.40
2024-03-01T10:41:27.420Z,16.20
2024-03-01T10:42:23.171Z,18.00
2024-03-01T10:43:22.432Z,18.10
2024-03-01T10:44:22.568Z,17.40
2024-03-01T10:45:22.750Z,17.70
2024-03-01T10:46:22.963Z,16.80
2024-03-01T10:47:23.114Z,16.90
2024-03-01T10:48:23.346Z,16.40
2024-03-01T10:49:23.596Z,17.60
2024-03-01T10:50:24.066Z,18.40
2024-03-01T10:51:23.819Z,17.80
2024-03-01T10:52:24.042Z,16.20
2024-03-01T10:53:24.186Z,16.90
2024-03-01T10:54:24.382Z,16.80
2024-03-01T10:55:24.786Z,18.90
2024-03-01T10:56:24.755Z,16.90
2024-03-01T10:57:24.947Z,16.90
2024-03-01T10:58:25.194Z,15.80
2024-03-01T10:59:25.331Z,16.00
2024-03-01T11:00:25.559Z,18.20
2024-03-01T11:01:26.091Z,18.00
2024-03-01T11:02:26.263Z,18.30
2024-03-01T11:03:26.438Z,19.50
2024-03-01T11:04:26.879Z,20.10
2024-03-01T11:05:26.599Z,18.10
2024-03-01T11:06:26.889Z,19.30
2024-03-01T11:07:26.908Z,18.00
2024-03-01T11:08:26.962Z,19.00
2024-03-01T11:09:27.143Z,19.10
2024-03-01T11:10:27.434Z,19.80
2024-03-01T11:11:27.561Z,19.50
2024-03-01T11:12:27.713Z,20.50
2024-03-01T11:13:27.992Z,21.40
2024-03-01T11:14:28.113Z,20.30
2024-03-01T11:15:28.313Z,20.50
2024-03-01T11:16:28.513Z,20.40
2024-03-01T11:17:28.716Z,21.10
2024-03-01T11:18:28.864Z,21.40
2024-03-01T11:19:29.087Z,21.90
2024-03-01T11:20:29.227Z,19.70
2024-03-01T11:21:29.424Z,21.30
2024-03-01T11:22:29.635Z,20.80
2024-03-01T11:23:29.773Z,20.70
2024-03-01T11:24:29.944Z,21.20
2024-03-01T11:25:30.140Z,20.90
2024-03-01T11:26:30.336Z,22.70
2024-03-01T11:27:30.498Z,21.70
2024-03-01T11:28:30.708Z,20.00
2024-03-01T11:29:30.844Z,22.10
2024-03-01T11:30:31.027Z,21.00
2024-03-01T11:31:31.251Z,22.50
2024-03-01T11:32:31.514Z,21.50
2024-03-01T11:33:31.564Z,22.30
2024-03-01T11:34:31.845Z,21.40
2024-03-01T11:35:31.913Z,20.20
2024-03-01T11:36:32.092Z,21.20
2024-03-01T11:37:32.371Z,20.60
2024-03-01T11:38:32.455Z,21.10
2024-03-01T11:39:32.649Z,20.90
2024-03-01T11:40:32.828Z,20.90
2024-03-01T11:41:32.976Z,22.60
2024-03-01T11:42:34.757Z,20.40
2024-03-01T11:43:33.407Z,20.40
2024-03-01T11:44:33.513Z,20.90
2024-03-01T11:45:33.689Z,21.90
2024-03-01T11:46:33.956Z,21.70
2024-03-01T11:47:34.093Z,22.00
2024-03-01T11:48:34.244Z,21.50
2024-03-01T11:49:34.554Z,21.20
2024-03-01T11:50:34.575Z,21.20
2024-03-01T11:51:34.791Z,22.10
2024-03-01T11:52:35.116Z,21.10
2024-03-01T11:53:35.148Z,22.70
2024-03-01T11:54:35.313Z,22.90
2024-03-01T11:55:35.535Z,22.70
2024-03-01T11:56:35.651Z,22.10
2024-03-01T11:57:35.981Z,20.30
2024-03-01T11:58:36.136Z,21.40
2024-03-01T11:59:36.245Z,22.30
2024-03-01T12:00:36.489Z,20.10
2024-03-01T12:01:38.384Z,20.50
2024-03-01T12:02:36.874Z,22.30
2024-03-01T12:03:38.590Z,20.50
2024-03-01T12:04:37.408Z,20.30
2024-03-01T12:05:37.357Z,21.60
2024-03-01T12:06:37.543Z,21.20
2024-03-01T12:07:37.862Z,21.70
2024-03-01T12:08:37.917Z,21.90
2024-03-01T12:09:38.086Z,20.50
2024-03-01T12:10:38.305Z,20.70
2024-03-01T12:11:38.474Z,20.00
2024-03-01T12:12:38.705Z,21.60
2024-03-01T12:13:38.832Z,20.50
2024-03-01T12:14:38.993Z,19.70
2024-03-01T12:15:39.150Z,20.50
2024-03-01T12:16:39.384Z,19.90
2024-03-01T12:17:39.595Z,19.90
2024-03-01T12:18:39.737Z,20.40
2024-03-01T12:19:39.947Z,20.20
2024-03-01T12:20:40.104Z,20.40
2024-03-01T12:21:40.305Z,20.80
2024-03-01T12:22:40.744Z,21.00
2024-03-01T12:23:40.671Z,20.60
2024-03-01T12:24:40.825Z,21.30
2024-03-01T12:25:41.167Z,22.60
2024-03-01T12:26:41.202Z,20.40
2024-03-01T12:27:41.389Z,19.50
2024-03-01T12:28:41.647Z,21.40
2024-03-01T12:29:41.744Z,18.90
2024-03-01T12:30:41.937Z,21.40
2024-03-01T12:31:42.176Z,21.60
2024-03-01T12:32:43.286Z,17.00
2024-03-01T12:33:42.530Z,18.00
2024-03-01T12:34:42.804Z,18.00
2024-03-01T12:35:42.842Z,17.70
2024-03-01T12:36:48.259Z,17.50
2024-03-01T12:37:44.189Z,18.10
2024-03-01T12:38:43.382Z,17.40
2024-03-01T12:39:43.577Z,16.30
2024-03-01T12:40:43.776Z,18.60
2024-03-01T12:41:43.938Z,18.10
2024-03-01T12:42:44.131Z,17.30
2024-03-01T12:43:44.328Z,19.00
2024-03-01T12:44:44.481Z,18.90
2024-03-01T12:45:44.660Z,19.10
2024-03-01T12:46:44.901Z,19.20
2024-03-01T12:47:45.024Z,19.10
2024-03-01T12:48:45.182Z,21.20
2024-03-01T12:49:45.413Z,20.10
2024-03-01T12:50:45.559Z,20.50
2024-03-01T12:51:45.748Z,21.80
2024-03-01T12:52:46.007Z,20.70
2024-03-01T12:53:46.103Z,22.10
2024-03-01T12:54:46.274Z,21.40
2024-03-01T12:55:46.504Z,21.80